sensor_id;sensor_type;location;lat;lon;timestamp;pressure;altitude;pressure_sealevel;temperature;humidity
3844;BME280;1937;51.444;6.484;2023-11-19T00:02:19;109610.25;;;12.71;100.00
3844;BME280;1937;51.444;6.484;2023-11-19T00:04:46;109274.69;;;12.71;100.00
3844;BME280;1937;51.444;6.484;2023-11-19T00:07:13;109292.38;;;12.81;100.00
3844;BME280;1937;51.444;6.484;2023-11-19T00:09:40;108601.81;;;12.69;100.00
3844;BME280;1937;51.444;6.484;2023-11-19T00:12:07;109303.53;;;12.87;100.00
3844;BME280;1937;51.444;6.484;2023-11-19T00:14:35;108980.00;;;12.93;100.00
3844;BME280;1937;51.444;6.484;2023-11-19T00:17:02;108317.13;;;12.96;100.00
3844;BME280;1937;51.444;6.484;2023-11-19T00:19:29;107979.75;;;12.95;100.00
3844;BME280;1937;51.444;6.484;2023-11-19T00:21:55;107636.88;;;12.90;100.00
3844;BME280;1937;51.444;6.484;2023-11-19T00:24:22;107642.41;;;12.93;100.00
3844;BME280;1937;51.444;6.484;2023-11-19T00:26:49;107989.88;;;13.00;100.00
3844;BME280;1937;51.444;6.484;2023-11-19T00:29:15;107989.88;;;13.00;100.00
3844;BME280;1937;51.444;6.484;2023-11-19T00:31:45;107305.09;;;12.92;100.00
3844;BME280;1937;51.444;6.484;2023-11-19T00:34:12;107651.59;;;12.98;100.00
3844;BME280;1937;51.444;6.484;2023-11-19T00:36:38;107652.50;;;12.99;100.00
3844;BME280;1937;51.444;6.484;2023-11-19T00:39:05;107673.59;;;13.10;100.00
3844;BME280;1937;51.444;6.484;2023-11-19T00:41:32;106658.84;;;13.04;100.00
3844;BME280;1937;51.444;6.484;2023-11-19T00:43:58;106657.94;;;13.04;100.00
3844;BME280;1937;51.444;6.484;2023-11-19T00:46:25;107001.59;;;13.09;100.00
3844;BME280;1937;51.444;6.484;2023-11-19T00:48:53;106676.13;;;13.14;100.00
3844;BME280;1937;51.444;6.484;2023-11-19T00:51:20;106323.41;;;13.04;100.00
3844;BME280;1937;51.444;6.484;2023-11-19T00:53:46;106656.09;;;13.03;100.00
3844;BME280;1937;51.444;6.484;2023-11-19T00:56:13;106669.75;;;13.10;100.00
3844;BME280;1937;51.444;6.484;2023-11-19T00:58:39;105998.88;;;13.09;100.00
3844;BME280;1937;51.444;6.484;2023-11-19T01:01:06;106341.56;;;13.14;100.00
3844;BME280;1937;51.444;6.484;2023-11-19T01:03:32;105665.28;;;13.10;100.00
3844;BME280;1937;51.444;6.484;2023-11-19T01:06:01;105319.16;;;13.03;100.00
3844;BME280;1937;51.444;6.484;2023-11-19T01:08:27;105991.66;;;13.05;100.00
3844;BME280;1937;51.444;6.484;2023-11-19T01:10:54;105988.94;;;13.04;100.00
3844;BME280;1937;51.444;6.484;2023-11-19T01:13:21;105647.28;;;13.00;100.00
3844;BME280;1937;51.444;6.484;2023-11-19T01:15:47;105989.84;;;13.04;100.00
3844;BME280;1937;51.444;6.484;2023-11-19T01:18:14;106325.22;;;13.05;100.00
3844;BME280;1937;51.444;6.484;2023-11-19T01:20:41;105659.91;;;13.07;100.00
3844;BME280;1937;51.444;6.484;2023-11-19T01:23:08;105656.28;;;13.05;100.00
3844;BME280;1937;51.444;6.484;2023-11-19T01:25:35;105641.88;;;12.97;100.00
3844;BME280;1937;51.444;6.484;2023-11-19T01:28:03;106315.28;;;12.99;100.00
3844;BME280;1937;51.444;6.484;2023-11-19T01:30:30;106996.13;;;13.06;100.00
3844;BME280;1937;51.444;6.484;2023-11-19T01:32:57;106657.94;;;13.04;100.00
3844;BME280;1937;51.444;6.484;2023-11-19T01:35:23;105985.31;;;13.02;100.00
3844;BME280;1937;51.444;6.484;2023-11-19T01:37:50;105996.16;;;13.08;100.00
3844;BME280;1937;51.444;6.484;2023-11-19T01:40:21;105998.88;;;13.09;100.00
3844;BME280;1937;51.444;6.484;2023-11-19T01:42:47;106337.97;;;13.12;100.00
3844;BME280;1937;51.444;6.484;2023-11-19T01:45:22;105998.88;;;13.09;100.00
3844;BME280;1937;51.444;6.484;2023-11-19T01:47:53;106684.34;;;13.19;100.00
3844;BME280;1937;51.444;6.484;2023-11-19T01:50:20;106008.84;;;13.15;100.00
3844;BME280;1937;51.444;6.484;2023-11-19T01:52:47;106677.97;;;13.15;100.00
3844;BME280;1937;51.444;6.484;2023-11-19T01:55:14;106367.88;;;13.29;100.00
3844;BME280;1937;51.444;6.484;2023-11-19T01:57:42;105012.56;;;13.19;100.00
3844;BME280;1937;51.444;6.484;2023-11-19T02:00:10;105013.44;;;13.20;100.00
3844;BME280;1937;51.444;6.484;2023-11-19T02:02:38;104676.34;;;13.18;100.00
3844;BME280;1937;51.444;6.484;2023-11-19T02:05:05;104662.03;;;13.10;100.00
3844;BME280;1937;51.444;6.484;2023-11-19T02:07:32;104999.09;;;13.11;100.00
3844;BME280;1937;51.444;6.484;2023-11-19T02:09:59;104661.13;;;13.09;100.00
3844;BME280;1937;51.444;6.484;2023-11-19T02:12:26;104658.44;;;13.08;100.00
3844;BME280;1937;51.444;6.484;2023-11-19T02:14:55;104656.69;;;13.07;100.00
3844;BME280;1937;51.444;6.484;2023-11-19T02:17:26;104636.16;;;12.95;100.00
3844;BME280;1937;51.444;6.484;2023-11-19T02:19:53;105317.34;;;13.02;100.00
3844;BME280;1937;51.444;6.484;2023-11-19T02:22:19;105985.31;;;13.02;100.00
3844;BME280;1937;51.444;6.484;2023-11-19T02:24:47;106337.03;;;13.11;100.00
3844;BME280;1937;51.444;6.484;2023-11-19T02:27:20;106354.25;;;13.21;100.00
3844;BME280;1937;51.444;6.484;2023-11-19T02:29:51;105682.41;;;13.20;100.00
3844;BME280;1937;51.444;6.484;2023-11-19T02:32:19;105024.19;;;13.26;100.00
3844;BME280;1937;51.444;6.484;2023-11-19T02:34:45;105028.69;;;13.28;100.00
3844;BME280;1937;51.444;6.484;2023-11-19T02:37:12;104692.41;;;13.27;100.00
3844;BME280;1937;51.444;6.484;2023-11-19T02:39:40;104694.19;;;13.28;100.00
3844;BME280;1937;51.444;6.484;2023-11-19T02:42:07;104363.28;;;13.30;100.00
3844;BME280;1937;51.444;6.484;2023-11-19T02:44:34;104040.38;;;13.37;100.00
3844;BME280;1937;51.444;6.484;2023-11-19T02:47:02;103363.56;;;13.32;100.00
3844;BME280;1937;51.444;6.484;2023-11-19T02:49:29;103022.22;;;13.28;100.00
3844;BME280;1937;51.444;6.484;2023-11-19T02:51:55;103673.22;;;13.18;100.00
3844;BME280;1937;51.444;6.484;2023-11-19T02:54:22;104690.59;;;13.26;100.00
3844;BME280;1937;51.444;6.484;2023-11-19T02:56:52;104695.97;;;13.29;100.00
3844;BME280;1937;51.444;6.484;2023-11-19T02:59:24;104349.94;;;13.23;100.00
3844;BME280;1937;51.444;6.484;2023-11-19T03:01:53;104362.41;;;13.30;100.00
3844;BME280;1937;51.444;6.484;2023-11-19T03:04:21;104035.06;;;13.34;100.00
3844;BME280;1937;51.444;6.484;2023-11-19T03:06:48;102351.91;;;13.27;100.00
3844;BME280;1937;51.444;6.484;2023-11-19T03:09:15;100984.97;;;13.09;100.00
3844;BME280;1937;51.444;6.484;2023-11-19T03:11:41;100247.31;;;12.84;100.00
3844;BME280;1937;51.444;6.484;2023-11-19T03:14:08;99589.69;;;12.74;100.00
3844;BME280;1937;51.444;6.484;2023-11-19T03:16:34;99931.91;;;12.79;100.00
3844;BME280;1937;51.444;6.484;2023-11-19T03:19:01;99232.31;;;12.60;100.00
3844;BME280;1937;51.444;6.484;2023-11-19T03:21:31;100208.38;;;12.45;100.00
3844;BME280;1937;51.444;6.484;2023-11-19T03:23:58;100541.13;;;12.45;100.00
3844;BME280;1937;51.444;6.484;2023-11-19T03:26:26;101205.84;;;12.43;100.00
3844;BME280;1937;51.444;6.484;2023-11-19T03:28:52;101211.03;;;12.46;100.00
3844;BME280;1937;51.444;6.484;2023-11-19T03:31:19;100204.94;;;12.43;100.00
3844;BME280;1937;51.444;6.484;2023-11-19T03:33:46;99850.94;;;12.31;100.00
3844;BME280;1937;51.444;6.484;2023-11-19T03:36:13;99525.97;;;12.36;100.00
3844;BME280;1937;51.444;6.484;2023-11-19T03:38:41;98280.63;;;12.25;100.00
3844;BME280;1937;51.444;6.484;2023-11-19T03:41:11;98847.25;;;12.29;100.00
3844;BME280;1937;51.444;6.484;2023-11-19T03:43:38;97917.56;;;12.29;100.00
3844;BME280;1937;51.444;6.484;2023-11-19T03:46:05;96914.63;;;12.37;100.00
3844;BME280;1937;51.444;6.484;2023-11-19T03:48:31;95315.19;;;12.32;100.00
3844;BME280;1937;51.444;6.484;2023-11-19T03:50:58;93753.28;;;12.14;100.00
3844;BME280;1937;51.444;6.484;2023-11-19T03:53:24;94051.34;;;12.21;100.00
3844;BME280;1937;51.444;6.484;2023-11-19T03:55:52;93610.06;;;12.09;100.00
3844;BME280;1937;51.444;6.484;2023-11-19T03:58:19;94354.06;;;12.06;100.00
3844;BME280;1937;51.444;6.484;2023-11-19T04:00:45;94094.13;;;11.91;100.00
3844;BME280;1937;51.444;6.484;2023-11-19T04:03:12;94853.47;;;12.12;100.00
3844;BME280;1937;51.444;6.484;2023-11-19T04:05:38;93790.06;;;12.11;100.00
3844;BME280;1937;51.444;6.484;2023-11-19T04:08:05;93069.81;;;12.06;100.00
3844;BME280;1937;51.444;6.484;2023-11-19T04:10:32;92329.94;;;11.95;100.00
3844;BME280;1937;51.444;6.484;2023-11-19T04:13:00;92390.84;;;11.87;100.00
3844;BME280;1937;51.444;6.484;2023-11-19T04:15:26;93230.63;;;11.96;100.00
3844;BME280;1937;51.444;6.484;2023-11-19T04:17:53;93681.66;;;11.98;100.00
3844;BME280;1937;51.444;6.484;2023-11-19T04:20:19;94421.84;;;12.04;100.00
3844;BME280;1937;51.444;6.484;2023-11-19T04:22:46;93814.00;;;11.93;100.00
3844;BME280;1937;51.444;6.484;2023-11-19T04:25:12;94958.53;;;11.87;100.00
3844;BME280;1937;51.444;6.484;2023-11-19T04:27:40;96905.66;;;12.07;100.00
3844;BME280;1937;51.444;6.484;2023-11-19T04:30:08;96951.88;;;12.26;100.00
3844;BME280;1937;51.444;6.484;2023-11-19T04:32:36;95983.13;;;12.32;100.00
3844;BME280;1937;51.444;6.484;2023-11-19T04:35:03;95315.34;;;12.31;100.00
3844;BME280;1937;51.444;6.484;2023-11-19T04:37:29;93703.09;;;12.26;100.00
3844;BME280;1937;51.444;6.484;2023-11-19T04:39:56;92470.22;;;12.18;100.00
3844;BME280;1937;51.444;6.484;2023-11-19T04:42:22;92676.38;;;12.30;100.00
3844;BME280;1937;51.444;6.484;2023-11-19T04:44:49;90815.63;;;12.23;100.00
3844;BME280;1937;51.444;6.484;2023-11-19T04:47:17;89776.75;;;12.44;100.00
3844;BME280;1937;51.444;6.484;2023-11-19T04:49:44;88429.53;;;12.43;100.00
3844;BME280;1937;51.444;6.484;2023-11-19T04:52:10;88410.78;;;12.50;100.00
3844;BME280;1937;51.444;6.484;2023-11-19T04:54:41;87700.03;;;12.61;100.00
3844;BME280;1937;51.444;6.484;2023-11-19T04:57:08;86305.53;;;12.54;100.00
3844;BME280;1937;51.444;6.484;2023-11-19T04:59:36;84884.16;;;12.44;100.00
3844;BME280;1937;51.444;6.484;2023-11-19T05:02:03;83900.81;;;12.38;100.00
3844;BME280;1937;51.444;6.484;2023-11-19T05:04:31;84503.06;;;12.46;100.00
3844;BME280;1937;51.444;6.484;2023-11-19T05:06:58;84632.75;;;12.58;100.00
3844;BME280;1937;51.444;6.484;2023-11-19T05:09:24;83414.66;;;12.39;100.00
3844;BME280;1937;51.444;6.484;2023-11-19T05:11:51;83639.50;;;12.48;100.00
3844;BME280;1937;51.444;6.484;2023-11-19T05:14:18;83865.13;;;12.57;100.00
3844;BME280;1937;51.444;6.484;2023-11-19T05:16:45;83579.31;;;12.58;100.00
3844;BME280;1937;51.444;6.484;2023-11-19T05:19:12;83079.47;;;12.76;100.00
3844;BME280;1937;51.444;6.484;2023-11-19T05:21:41;81000.56;;;12.69;100.00
3844;BME280;1937;51.444;6.484;2023-11-19T05:24:08;80479.81;;;12.65;100.00
3844;BME280;1937;51.444;6.484;2023-11-19T05:26:35;79172.38;;;12.57;100.00
3844;BME280;1937;51.444;6.484;2023-11-19T05:29:01;78131.97;;;12.50;99.40
3844;BME280;1937;51.444;6.484;2023-11-19T05:31:28;77572.81;;;12.56;99.38
3844;BME280;1937;51.444;6.484;2023-11-19T05:33:55;76754.84;;;12.38;99.14
3844;BME280;1937;51.444;6.484;2023-11-19T05:36:21;76578.69;;;12.30;99.55
3844;BME280;1937;51.444;6.484;2023-11-19T05:38:49;76576.16;;;12.34;98.72
3844;BME280;1937;51.444;6.484;2023-11-19T05:41:16;76206.06;;;12.30;98.71
3844;BME280;1937;51.444;6.484;2023-11-19T05:43:42;76145.31;;;12.35;98.46
3844;BME280;1937;51.444;6.484;2023-11-19T05:46:09;75876.22;;;12.39;98.21
3844;BME280;1937;51.444;6.484;2023-11-19T05:48:35;75372.31;;;12.29;98.23
3844;BME280;1937;51.444;6.484;2023-11-19T05:51:02;75019.91;;;12.25;97.97
3844;BME280;1937;51.444;6.484;2023-11-19T05:53:28;74755.38;;;12.30;96.93
3844;BME280;1937;51.444;6.484;2023-11-19T05:55:57;74206.03;;;12.17;96.42
3844;BME280;1937;51.444;6.484;2023-11-19T05:58:24;73970.66;;;12.21;95.29
3844;BME280;1937;51.444;6.484;2023-11-19T06:00:53;73582.47;;;12.13;96.41
3844;BME280;1937;51.444;6.484;2023-11-19T06:03:20;73625.78;;;12.35;95.85
3844;BME280;1937;51.444;6.484;2023-11-19T06:05:48;73477.38;;;12.26;96.03
3844;BME280;1937;51.444;6.484;2023-11-19T06:08:15;73503.72;;;12.10;97.60
3844;BME280;1937;51.444;6.484;2023-11-19T06:10:43;73794.38;;;12.15;97.25
3844;BME280;1937;51.444;6.484;2023-11-19T06:13:12;74075.69;;;12.06;98.79
3844;BME280;1937;51.444;6.484;2023-11-19T06:15:41;74141.59;;;12.07;97.80
3844;BME280;1937;51.444;6.484;2023-11-19T06:18:08;74268.13;;;12.15;97.35
3844;BME280;1937;51.444;6.484;2023-11-19T06:20:36;74124.44;;;11.92;98.83
3844;BME280;1937;51.444;6.484;2023-11-19T06:23:03;74265.91;;;11.93;97.90
3844;BME280;1937;51.444;6.484;2023-11-19T06:25:30;74128.69;;;12.07;97.17
3844;BME280;1937;51.444;6.484;2023-11-19T06:27:56;73798.66;;;11.98;96.39
3844;BME280;1937;51.444;6.484;2023-11-19T06:30:24;73491.03;;;12.02;95.48
3844;BME280;1937;51.444;6.484;2023-11-19T06:32:51;73177.00;;;12.03;94.95
3844;BME280;1937;51.444;6.484;2023-11-19T06:35:18;72820.09;;;12.11;93.81
3844;BME280;1937;51.444;6.484;2023-11-19T06:37:45;72430.91;;;12.03;94.02
3844;BME280;1937;51.444;6.484;2023-11-19T06:40:11;72396.59;;;12.05;94.29
3844;BME280;1937;51.444;6.484;2023-11-19T06:42:41;72208.22;;;12.01;93.46
3844;BME280;1937;51.444;6.484;2023-11-19T06:45:08;72110.97;;;11.95;94.63
3844;BME280;1937;51.444;6.484;2023-11-19T06:47:36;72124.41;;;11.85;95.15
3844;BME280;1937;51.444;6.484;2023-11-19T06:50:03;72117.38;;;11.83;95.18
3844;BME280;1937;51.444;6.484;2023-11-19T06:52:31;72161.06;;;11.75;95.68
3844;BME280;1937;51.444;6.484;2023-11-19T06:54:57;72262.09;;;11.81;95.16
3844;BME280;1937;51.444;6.484;2023-11-19T06:57:24;72206.63;;;11.80;94.91
3844;BME280;1937;51.444;6.484;2023-11-19T06:59:50;72123.28;;;11.95;94.17
3844;BME280;1937;51.444;6.484;2023-11-19T07:02:17;71940.53;;;11.82;93.75
3844;BME280;1937;51.444;6.484;2023-11-19T07:04:45;71996.72;;;11.82;93.85
3844;BME280;1937;51.444;6.484;2023-11-19T07:07:12;71949.31;;;11.75;95.06
3844;BME280;1937;51.444;6.484;2023-11-19T07:09:40;72027.50;;;11.86;94.38
3844;BME280;1937;51.444;6.484;2023-11-19T07:12:06;71875.84;;;11.84;93.25
3844;BME280;1937;51.444;6.484;2023-11-19T07:14:33;71786.50;;;11.66;94.75
3844;BME280;1937;51.444;6.484;2023-11-19T07:16:59;71964.09;;;11.76;93.77
3844;BME280;1937;51.444;6.484;2023-11-19T07:19:26;71769.72;;;11.78;93.91
3844;BME280;1937;51.444;6.484;2023-11-19T07:21:54;71474.00;;;11.79;92.67
3844;BME280;1937;51.444;6.484;2023-11-19T07:24:21;71408.00;;;11.71;93.19
3844;BME280;1937;51.444;6.484;2023-11-19T07:26:48;71496.41;;;11.82;93.02
3844;BME280;1937;51.444;6.484;2023-11-19T07:29:14;71264.53;;;11.74;93.14
3844;BME280;1937;51.444;6.484;2023-11-19T07:31:41;71314.44;;;11.71;92.40
3844;BME280;1937;51.444;6.484;2023-11-19T07:34:09;71144.81;;;11.69;92.33
3844;BME280;1937;51.444;6.484;2023-11-19T07:36:36;71227.88;;;11.82;91.69
3844;BME280;1937;51.444;6.484;2023-11-19T07:39:05;71093.88;;;11.78;91.97
3844;BME280;1937;51.444;6.484;2023-11-19T07:41:31;71034.19;;;11.74;92.42
3844;BME280;1937;51.444;6.484;2023-11-19T07:43:58;71066.09;;;11.79;92.17
3844;BME280;1937;51.444;6.484;2023-11-19T07:46:25;70945.25;;;11.81;91.04
3844;BME280;1937;51.444;6.484;2023-11-19T07:48:52;70850.53;;;11.88;90.65
3844;BME280;1937;51.444;6.484;2023-11-19T07:51:19;70847.16;;;11.90;91.20
3844;BME280;1937;51.444;6.484;2023-11-19T07:53:46;70994.69;;;12.22;91.67
3844;BME280;1937;51.444;6.484;2023-11-19T07:56:14;70699.56;;;12.56;88.12
3844;BME280;1937;51.444;6.484;2023-11-19T07:58:41;70352.63;;;12.64;87.44
3844;BME280;1937;51.444;6.484;2023-11-19T08:01:10;70238.34;;;12.94;86.10
3844;BME280;1937;51.444;6.484;2023-11-19T08:03:36;70072.44;;;13.29;84.70
3844;BME280;1937;51.444;6.484;2023-11-19T08:06:03;69748.47;;;13.28;83.73
3844;BME280;1937;51.444;6.484;2023-11-19T08:08:30;69706.75;;;13.39;83.59
3844;BME280;1937;51.444;6.484;2023-11-19T08:10:58;69510.69;;;13.26;83.31
3844;BME280;1937;51.444;6.484;2023-11-19T08:13:26;69519.06;;;13.27;83.67
3844;BME280;1937;51.444;6.484;2023-11-19T08:15:53;69470.03;;;12.79;85.50
3844;BME280;1937;51.444;6.484;2023-11-19T08:18:19;69539.75;;;12.59;86.66
3844;BME280;1937;51.444;6.484;2023-11-19T08:20:46;69735.69;;;12.85;86.42
3844;BME280;1937;51.444;6.484;2023-11-19T08:23:17;69823.13;;;13.32;84.88
3844;BME280;1937;51.444;6.484;2023-11-19T08:25:44;69666.22;;;13.64;83.37
3844;BME280;1937;51.444;6.484;2023-11-19T08:28:11;69457.00;;;13.53;83.01
3844;BME280;1937;51.444;6.484;2023-11-19T08:30:39;69528.25;;;13.78;83.05
3844;BME280;1937;51.444;6.484;2023-11-19T08:33:06;69485.25;;;14.01;82.17
3844;BME280;1937;51.444;6.484;2023-11-19T08:35:32;69396.75;;;14.18;80.76
3844;BME280;1937;51.444;6.484;2023-11-19T08:37:59;69306.81;;;14.30;80.17
3844;BME280;1937;51.444;6.484;2023-11-19T08:40:27;69291.66;;;14.39;79.82
3844;BME280;1937;51.444;6.484;2023-11-19T08:42:53;69207.78;;;14.29;80.12
3844;BME280;1937;51.444;6.484;2023-11-19T08:45:20;69261.09;;;14.53;79.34
3844;BME280;1937;51.444;6.484;2023-11-19T08:47:48;69188.34;;;14.48;79.25
3844;BME280;1937;51.444;6.484;2023-11-19T08:50:15;69154.31;;;14.39;79.66
3844;BME280;1937;51.444;6.484;2023-11-19T08:52:41;69060.22;;;14.16;79.56
3844;BME280;1937;51.444;6.484;2023-11-19T08:55:08;69182.75;;;14.52;79.51
3844;BME280;1937;51.444;6.484;2023-11-19T08:57:35;69163.84;;;14.71;78.20
3844;BME280;1937;51.444;6.484;2023-11-19T09:00:02;69101.09;;;14.64;78.09
3844;BME280;1937;51.444;6.484;2023-11-19T09:02:32;68993.69;;;14.15;80.27
3844;BME280;1937;51.444;6.484;2023-11-19T09:05:00;69185.66;;;14.30;80.94
3844;BME280;1937;51.444;6.484;2023-11-19T09:07:27;69215.22;;;14.51;80.13
3844;BME280;1937;51.444;6.484;2023-11-19T09:09:54;69057.50;;;14.12;80.84
3844;BME280;1937;51.444;6.484;2023-11-19T09:12:20;69105.94;;;14.07;81.28
3844;BME280;1937;51.444;6.484;2023-11-19T09:14:47;69105.22;;;13.95;81.47
3844;BME280;1937;51.444;6.484;2023-11-19T09:17:14;69171.94;;;13.94;82.43
3844;BME280;1937;51.444;6.484;2023-11-19T09:19:41;69190.25;;;13.99;81.76
3844;BME280;1937;51.444;6.484;2023-11-19T09:22:09;69158.59;;;13.92;82.32
3844;BME280;1937;51.444;6.484;2023-11-19T09:24:35;69219.38;;;13.86;82.72
3844;BME280;1937;51.444;6.484;2023-11-19T09:27:02;69154.59;;;14.00;81.50
3844;BME280;1937;51.444;6.484;2023-11-19T09:29:31;69211.63;;;14.24;80.68
3844;BME280;1937;51.444;6.484;2023-11-19T09:31:57;69158.22;;;14.20;79.97
3844;BME280;1937;51.444;6.484;2023-11-19T09:34:24;69103.44;;;13.93;81.92
3844;BME280;1937;51.444;6.484;2023-11-19T09:36:51;69175.13;;;13.95;82.01
3844;BME280;1937;51.444;6.484;2023-11-19T09:39:19;69147.09;;;14.15;80.81
3844;BME280;1937;51.444;6.484;2023-11-19T09:41:46;69094.22;;;14.01;81.13
3844;BME280;1937;51.444;6.484;2023-11-19T09:44:15;69128.25;;;14.04;80.79
3844;BME280;1937;51.444;6.484;2023-11-19T09:46:44;69156.41;;;14.25;80.88
3844;BME280;1937;51.444;6.484;2023-11-19T09:49:11;69189.97;;;14.45;80.33
3844;BME280;1937;51.444;6.484;2023-11-19T09:51:39;69123.38;;;14.68;79.01
3844;BME280;1937;51.444;6.484;2023-11-19T09:54:05;69099.28;;;14.45;79.77
3844;BME280;1937;51.444;6.484;2023-11-19T09:56:35;69080.31;;;14.22;80.33
3844;BME280;1937;51.444;6.484;2023-11-19T09:59:04;69041.66;;;14.20;79.99
3844;BME280;1937;51.444;6.484;2023-11-19T10:01:31;69104.53;;;14.32;80.88
3844;BME280;1937;51.444;6.484;2023-11-19T10:03:58;69104.28;;;14.41;79.70
3844;BME280;1937;51.444;6.484;2023-11-19T10:06:25;69036.88;;;14.23;80.69
3844;BME280;1937;51.444;6.484;2023-11-19T10:08:53;69028.94;;;13.94;81.19
3844;BME280;1937;51.444;6.484;2023-11-19T10:11:20;69089.25;;;13.99;81.11
3844;BME280;1937;51.444;6.484;2023-11-19T10:13:48;69010.59;;;13.96;80.74
3844;BME280;1937;51.444;6.484;2023-11-19T10:16:15;69055.84;;;14.15;80.59
3844;BME280;1937;51.444;6.484;2023-11-19T10:18:44;69047.06;;;14.18;79.55
3844;BME280;1937;51.444;6.484;2023-11-19T10:21:12;69082.22;;;14.59;79.42
3844;BME280;1937;51.444;6.484;2023-11-19T10:23:49;69032.59;;;14.74;77.63
3844;BME280;1937;51.444;6.484;2023-11-19T10:26:17;69021.88;;;14.72;78.06
3844;BME280;1937;51.444;6.484;2023-11-19T10:28:45;68926.69;;;14.77;76.74
3844;BME280;1937;51.444;6.484;2023-11-19T10:31:14;69001.50;;;14.74;77.85
3844;BME280;1937;51.444;6.484;2023-11-19T10:33:40;68957.56;;;14.79;77.62
3844;BME280;1937;51.444;6.484;2023-11-19T10:36:08;69004.88;;;15.08;76.27
3844;BME280;1937;51.444;6.484;2023-11-19T10:38:35;69058.63;;;15.21;77.26
3844;BME280;1937;51.444;6.484;2023-11-19T10:41:01;69033.41;;;15.62;74.10
3844;BME280;1937;51.444;6.484;2023-11-19T10:43:29;68966.81;;;15.82;73.38
3844;BME280;1937;51.444;6.484;2023-11-19T10:46:09;68917.19;;;15.62;73.25
3844;BME280;1937;51.444;6.484;2023-11-19T10:48:38;68807.97;;;15.35;74.51
3844;BME280;1937;51.444;6.484;2023-11-19T10:51:06;68895.84;;;15.73;72.92
3844;BME280;1937;51.444;6.484;2023-11-19T10:53:36;68902.50;;;15.83;72.37
3844;BME280;1937;51.444;6.484;2023-11-19T10:56:06;68884.22;;;15.89;72.36
3844;BME280;1937;51.444;6.484;2023-11-19T10:58:37;68867.94;;;15.95;71.15
3844;BME280;1937;51.444;6.484;2023-11-19T11:01:09;68903.53;;;16.19;71.75
3844;BME280;1937;51.444;6.484;2023-11-19T11:03:40;68780.09;;;15.91;70.97
3844;BME280;1937;51.444;6.484;2023-11-19T11:06:07;68916.38;;;16.26;71.80
3844;BME280;1937;51.444;6.484;2023-11-19T11:08:36;68805.38;;;15.97;71.65
3844;BME280;1937;51.444;6.484;2023-11-19T11:11:05;68856.38;;;16.06;72.03
3844;BME280;1937;51.444;6.484;2023-11-19T11:13:32;68767.47;;;16.05;70.34
3844;BME280;1937;51.444;6.484;2023-11-19T11:15:59;68749.41;;;15.76;71.79
3844;BME280;1937;51.444;6.484;2023-11-19T11:18:26;68737.50;;;15.95;70.67
3844;BME280;1937;51.444;6.484;2023-11-19T11:20:57;68746.94;;;15.92;72.03
3844;BME280;1937;51.444;6.484;2023-11-19T11:23:45;68669.66;;;15.59;71.71
3844;BME280;1937;51.444;6.484;2023-11-19T11:26:34;68658.31;;;15.45;73.08
3844;BME280;1937;51.444;6.484;2023-11-19T11:29:04;68745.41;;;15.55;72.69
3844;BME280;1937;51.444;6.484;2023-11-19T11:31:38;68749.75;;;15.79;72.08
3844;BME280;1937;51.444;6.484;2023-11-19T11:37:06;68678.50;;;15.55;72.89
3844;BME280;1937;51.444;6.484;2023-11-19T11:39:39;68680.75;;;15.53;72.81
3844;BME280;1937;51.444;6.484;2023-11-19T11:42:39;68659.25;;;15.48;72.47
3844;BME280;1937;51.444;6.484;2023-11-19T11:45:08;68692.41;;;15.47;72.97
3844;BME280;1937;51.444;6.484;2023-11-19T11:48:11;68657.59;;;15.51;71.81
3844;BME280;1937;51.444;6.484;2023-11-19T11:50:49;68564.56;;;15.20;72.57
3844;BME280;1937;51.444;6.484;2023-11-19T11:53:19;68573.66;;;14.92;73.78
3844;BME280;1937;51.444;6.484;2023-11-19T11:55:55;68607.38;;;15.03;73.19
3844;BME280;1937;51.444;6.484;2023-11-19T11:58:32;68585.00;;;14.95;73.88
3844;BME280;1937;51.444;6.484;2023-11-19T12:01:02;68597.38;;;14.95;73.91
3844;BME280;1937;51.444;6.484;2023-11-19T12:03:31;68627.53;;;14.92;74.52
3844;BME280;1937;51.444;6.484;2023-11-19T12:05:58;68639.91;;;14.91;74.07
3844;BME280;1937;51.444;6.484;2023-11-19T12:08:28;68597.25;;;15.01;74.36
3844;BME280;1937;51.444;6.484;2023-11-19T12:10:56;68605.47;;;14.97;73.57
3844;BME280;1937;51.444;6.484;2023-11-19T12:13:24;68552.94;;;14.70;74.51
3844;BME280;1937;51.444;6.484;2023-11-19T12:16:07;68579.66;;;14.91;74.75
3844;BME280;1937;51.444;6.484;2023-11-19T12:18:34;68633.28;;;14.70;75.69
3844;BME280;1937;51.444;6.484;2023-11-19T12:21:01;68608.56;;;14.71;76.29
3844;BME280;1937;51.444;6.484;2023-11-19T12:23:30;68643.72;;;14.41;78.25
3844;BME280;1937;51.444;6.484;2023-11-19T12:25:57;68652.75;;;14.35;78.72
3844;BME280;1937;51.444;6.484;2023-11-19T12:28:24;68627.94;;;14.03;79.24
3844;BME280;1937;51.444;6.484;2023-11-19T12:30:52;68598.69;;;13.76;79.98
3844;BME280;1937;51.444;6.484;2023-11-19T12:33:20;68683.03;;;13.79;80.86
3844;BME280;1937;51.444;6.484;2023-11-19T12:35:47;68748.63;;;13.89;80.71
3844;BME280;1937;51.444;6.484;2023-11-19T12:38:21;68726.69;;;13.77;80.73
3844;BME280;1937;51.444;6.484;2023-11-19T12:41:04;68737.47;;;13.73;81.12
3844;BME280;1937;51.444;6.484;2023-11-19T12:43:30;68737.19;;;13.64;81.27
3844;BME280;1937;51.444;6.484;2023-11-19T12:45:57;68789.81;;;13.73;81.85
3844;BME280;1937;51.444;6.484;2023-11-19T12:48:24;68817.19;;;13.66;82.08
3844;BME280;1937;51.444;6.484;2023-11-19T12:50:50;68877.22;;;13.73;82.20
3844;BME280;1937;51.444;6.484;2023-11-19T12:53:17;68846.31;;;13.77;82.18
3844;BME280;1937;51.444;6.484;2023-11-19T12:55:43;68991.47;;;14.00;82.80
3844;BME280;1937;51.444;6.484;2023-11-19T12:58:27;69013.13;;;14.27;81.91
3844;BME280;1937;51.444;6.484;2023-11-19T13:00:59;69058.06;;;14.37;81.38
3844;BME280;1937;51.444;6.484;2023-11-19T13:03:30;68971.75;;;13.96;81.87
3844;BME280;1937;51.444;6.484;2023-11-19T13:06:04;68930.03;;;13.87;82.01
3844;BME280;1937;51.444;6.484;2023-11-19T13:08:36;68935.34;;;13.74;82.41
3844;BME280;1937;51.444;6.484;2023-11-19T13:11:04;68935.91;;;13.57;83.57
3844;BME280;1937;51.444;6.484;2023-11-19T13:13:53;68997.31;;;13.38;84.49
3844;BME280;1937;51.444;6.484;2023-11-19T13:16:19;69114.78;;;13.28;85.92
3844;BME280;1937;51.444;6.484;2023-11-19T13:18:46;69247.22;;;13.48;85.75
3844;BME280;1937;51.444;6.484;2023-11-19T13:21:13;69254.94;;;13.55;85.35
3844;BME280;1937;51.444;6.484;2023-11-19T13:23:39;69144.13;;;13.44;84.43